1st December 2019 | Otago, New Zealand

The Pioneer fuelled by Nutri-Grain (2019)

General Classification Teams

Pos Team Name Team Time Points Category (Pos)
1 (#128) ONYA BIKE NORTH OTAGO 17:51:04 30 Open Men (1)
2 (#110) GIANT AUSTRALIA OFF-ROAD TEAM 18:05:54 38 Open Men (2)
3 (#148) WINGER HAMILTON 18:29:23 78 Open Men (3)
4 (#151) MARATHONMTB.COM 18:51:00 94 Open Men (4)
5 (#119) MAAP SHIMANO 19:18:57 134 Open Men (5)
6 (#108) CYCLIST MAGAZINE 19:37:20 160 Open Men (6)
7 (#126) MCMILLAN CIVIL 19:43:42 160 Open Men (7)
8 (#133) SPECIALISED STRUCTURES 19:53:47 190 Open Men (8)
9 (#106) CYCLE WORLD RACING 20:10:28 221 Open Men (9)
10 (#136) GREENMONKEY 20:11:59 247 Open Men (10)
11 (#336) TEAM JOJO 20:24:57 276 Mixed (1)
12 (#333) SRAM MTOSS 20:38:54 316 Mixed (2)
13 (#440) OFF THE CHAIN 20:53:44 323 Masters Men (1)
14 (#121) MORTGAGE ME NZ CYCLING PROJECT 21:08:07 372 Open Men (11)
15 (#410) CYCLE OBSESSION 21:09:05 383 Masters Men (2)
16 (#630) TERREACTIVE IT SECURITY 21:12:43 416 Grand Masters Men (1)
17 (#326) TEAM NEW WORLD-PIVOT 21:16:30 432 Mixed (3)
18 (#429) OPTIMAL PERFORMANCE 21:25:43 450 Masters Men (3)
19 (#105) CIRCUIT ASPHALT 21:52:08 534 Open Men (12)
20 (#203) STONEWOOD HOMES 21:54:22 514 Open Women (1)
21 (#134) SQUAREONE PHYSIO 22:04:22 536 Open Men (13)
22 (#633) THE HUB CYCLE CENTRE - RUNNING OUT OF SUMMERS 22:08:21 576 Grand Masters Men (2)
23 (#124) NEW WORLD ST MARTINS 22:22:58 664 Open Men (14)
24 (#413) DAIKIN THERMAL SOLUTIONS 22:24:04 650 Masters Men (4)
25 (#608) CYCLEWAYS 22:32:40 649 Grand Masters Men (3)
26 (#412) CYCLINGTIPS.COM 22:33:56 638 Masters Men (5)
27 (#638) VELO WORKSHOP 22:39:51 683 Grand Masters Men (4)
28 (#137) TEAM ELEVATE 22:43:09 740 Open Men (15)
29 (#102) BLUBLOKES 22:46:25 710 Open Men (16)
30 (#436) SHOW NO WEAKNESS 22:51:48 804 Masters Men (6)
31 (#411) STICKY BOTTLE 22:53:47 796 Masters Men (7)
32 (#127) ONE HIT WONDERS 22:54:31 804 Open Men (17)
33 (#323) SHIMANO PUSHYS CANNONDALE 22:55:30 718 Mixed (4)
34 (#434) SHAUN & MATT - AKA SHAT 23:00:33 822 Masters Men (8)
35 (#118) LES MORREAUX 23:00:56 842 Open Men (18)
36 (#437) SILVERSKYCYCLE 23:02:31 788 Masters Men (9)
37 (#116) LANKY N RANKY 23:09:59 884 Open Men (19)
38 (#335) GREENMONKEY/PIVOT CYCLES 23:10:16 918 Mixed (5)
39 (#317) MTBVL ADVENTURES 23:12:02 918 Mixed (6)
40 (#444) TEAM SMIDDY 23:13:11 932 Masters Men (10)
41 (#130) PURE SPORTS NUTRITION 23:21:12 957 Open Men (20)
42 (#620) RIDETECHNICS 23:30:33 966 Grand Masters Men (5)
43 (#107) CYCLETIME HAMILTON 24:04:24 1058 Open Men (21)
44 (#139) TEAM VELO-REICHMUTH.CH 24:13:32 1114 Open Men (22)
45 (#452) VEGAS BOYS 24:27:10 1182 Masters Men (11)
46 (#305) BIKETO-YUXI TEAM 24:29:10 1230 Mixed (7)
47 (#202) NEW WORLD ST MARTINS WOMEN 24:36:41 1234 Open Women (2)
48 (#141) TEDS & FLASH 24:43:34 1257 Open Men (23)
49 (#149) THE PIONEERS 24:44:18 1256 Open Men (24)
50 (#111) GOOI MIELIES 24:46:29 1346 Open Men (25)
51 (#310) EQUIPE IRIS-BOB CYCLO 24:49:41 1274 Mixed (8)
52 (#138) TEAM PINNACLE 25:02:25 1378 Open Men (26)
53 (#123) NBRCC 25:10:02 1338 Open Men (27)
54 (#101) FLEET CYCLES 25:13:08 1388 Open Men (28)
55 (#143) THE HANDLEBAR DADS - MOVEMBER NZ 25:13:59 1406 Open Men (29)
56 (#430) OUT OF OFFICE 25:32:20 1444 Masters Men (12)
57 (#320) REMARKABLE PHYSIOS 25:35:17 1448 Mixed (9)
58 (#424) MEOGP RACING TEAM 25:43:02 1494 Masters Men (13)
59 (#503) EARNSCLEUGH EXPRESS 25:46:25 1554 Masters Women (1)
60 (#201) TIKI WINE & VINEYARDS 25:52:00 1554 Open Women (3)
61 (#640) LES CROQUES MONSIEURS 26:03:34 1572 Grand Masters Men (6)
62 (#422) KEA - EAGLE 26:03:49 1494 Masters Men (14)
63 (#146) TWO WATTS 26:04:44 1558 Open Men (30)
64 (#147) WRBIKES 26:13:16 1568 Open Men (31)
65 (#405) BLACKYARD RACING - STRAYA 26:23:55 1650 Masters Men (15)
66 (#428) OLD BOYS OUT OF CONTROL 26:27:43 1498 Masters Men (16)
67 (#104) CALCONASSOS IBIZA 2 26:31:05 1802 Open Men (32)
68 (#449) THE VIKINGS 26:31:30 1590 Masters Men (17)
69 (#601) 1E SIBA MTB TEAM 26:42:25 1738 Grand Masters Men (7)
70 (#114) KIESER AUSTRALIA 26:50:58 1822 Open Men (33)
71 (#150) TEAM GREFIN 26:53:47 1752 Open Men (34)
72 (#454) WAZZA DUO 26:56:22 1720 Masters Men (18)
73 (#618) RANGI ROCKETS 26:57:51 1840 Grand Masters Men (8)
74 (#314) LIV AND JOE 27:10:01 1872 Mixed (10)
75 (#641) TWO OLD FOR THIS MATE 27:33:58 1882 Grand Masters Men (9)
76 (#315) LYNX REAL ESTATE 27:48:10 2060 Mixed (11)
77 (#621) SEEDED WHEELS 27:55:27 2020 Grand Masters Men (10)
78 (#607) CRY N' FEAR 27:56:20 2168 Grand Masters Men (11)
79 (#301) AKSA TEAM 27:56:48 2194 Mixed (12)
80 (#140) TEAM VICTORY VETS 27:58:23 2133 Open Men (35)
81 (#316) MOUNTAIN SNAILS 28:06:04 2116 Mixed (13)
82 (#302) ALREADY KNOW BETTER! 28:08:57 2180 Mixed (14)
83 (#603) 2DEGREES 28:09:07 2138 Grand Masters Men (12)
84 (#443) TEAM RACK 'N' STACK 28:12:41 2083 Masters Men (19)
85 (#450) THE WOLFPACK 28:17:10 2260 Masters Men (20)
86 (#637) TWO SOUTHERN MEN 28:20:33 2210 Grand Masters Men (13)
87 (#447) THE BENDS 28:23:35 2230 Masters Men (21)
88 (#135) TARANAKI HARDTAILS 28:26:37 2350 Open Men (36)
89 (#507) OUTLAW SISTERS 28:27:58 2230 Masters Women (2)
90 (#318) PADDY & CO 28:39:10 2300 Mixed (15)
91 (#313) KISIELS@50 28:42:29 2238 Mixed (16)
92 (#328) THE FREE WHEELERS 28:51:24 2250 Mixed (17)
93 (#419) ICE 28:57:44 2228 Masters Men (22)
94 (#433) RPM 29:01:42 2344 Masters Men (23)
95 (#122) GALILEO RISK 29:04:03 2216 Open Men (37)
96 (#508) TEAM CYCLEWAYS 29:07:42 2480 Masters Women (3)
97 (#451) TWO WEAK LINKS 29:17:39 2450 Masters Men (24)
98 (#609) DEFEND FIRE PROTECTION 29:19:10 2430 Mixed (18)
99 (#125) NOT HERE TO F**K SPIDERS 29:24:59 2310 Open Men (38)
100 (#407) CALCONASSOS IBIZA 3 29:29:26 2474 Masters Men (25)
101 (#446) THE 2 AMIGOS 30:03:17 2692 Masters Men (26)
102 (#330) CYCLE OBSESSION - MIXED 30:03:34 2633 Mixed (19)
103 (#426) NEW WORLD KUMEU 30:12:44 2680 Masters Men (27)
104 (#438) SINOGULF 30:16:28 2758 Masters Men (28)
105 (#303) AN EPIC COMBO 30:31:41 2790 Mixed (20)
106 (#402) 4 STRONG LEGS 30:32:36 2766 Masters Men (29)
107 (#604) 86 400 30:46:55 2858 Grand Masters Men (14)
108 (#401) 2 BROKE BLOKES 30:47:36 2766 Masters Men (30)
109 (#417) HILLBILLYS 30:48:54 2846 Masters Men (31)
110 (#629) TEAM: NUTRI-GRAIN 30:53:56 2810 Grand Masters Men (15)
111 (#408) CALSONASSOS IBIZA 1 31:01:08 2764 Masters Men (32)
112 (#321) SERPANTIN 31:04:26 3014 Mixed (21)
113 (#113) KELLYS CAFE & BAR 31:06:20 2856 Open Men (39)
114 (#610) DEUSA 31:08:42 2818 Grand Masters Men (16)
115 (#445) TERRA FIRMA SKODA 31:18:48 2888 Masters Men (33)
116 (#502) DEFEND FIRE PROTECTION GIRLS ON FIRE 31:20:25 2836 Masters Women (4)
117 (#420) INOSYM 31:31:24 3048 Masters Men (34)
118 (#409) CALSONASSOS IBIZA 4 31:35:17 2952 Masters Men (35)
119 (#145) THE OTHER GUYS 31:37:44 3004 Open Men (40)
120 (#505) I SHOP NEW WORLD 31:38:22 3045 Masters Women (5)
121 (#129) PROJECT THREE SIXTY LIMITED 31:47:45 2976 Open Men (41)
122 (#625) TEAM BIG RIDE 31:53:44 2846 Grand Masters Men (17)
123 (#117) LEGEND CHX 32:00:41 3078 Open Men (42)
124 (#319) RED ALERT 32:00:56 3180 Mixed (22)
125 (#456) ZOOMEN 32:01:28 3064 Masters Men (36)
126 (#623) SO FAR BUT SO CLOSE 32:06:18 3184 Grand Masters Men (18)
127 (#306) BLACKYARD RACING - SI 32:07:55 3088 Mixed (23)
128 (#406) BOTH SIDES OF THE DITCH 32:14:28 3072 Masters Men (37)
129 (#606) AXIS HOUSE CYCLE 4 CANSA 32:37:28 3252 Grand Masters Men (19)
130 (#329) THE WHEELS 32:44:59 3282 Mixed (24)
131 (#612) EPICURE 32:50:14 3216 Grand Masters Men (20)
132 (#622) SMILES FOR THE PACIFIC 32:53:08 3251 Grand Masters Men (21)
133 (#628) TEAM X 32:53:12 3248 Grand Masters Men (22)
134 (#626) TEAM DNR 33:13:18 3440 Grand Masters Men (23)
135 (#501) CABLE LOGGING GERALDINE NZ 33:15:11 3302 Masters Women (6)
136 (#441) TEAM DANÆS AHON 33:33:06 3466 Masters Men (38)
137 (#639) WELL VENTECH 33:37:12 3476 Grand Masters Men (24)
138 (#131) RATHOLE RACING 33:48:09 3495 Open Men (43)
139 (#602) 2 AUSSIE PADDLERS 33:50:15 3510 Grand Masters Men (25)
140 (#605) AGAINST ALL ODDS 33:56:27 3550 Grand Masters Men (26)
141 (#304) JACQUES & GEORGIA 34:00:08 3481 Mixed (25)
142 (#416) GLOBALID 34:00:57 3602 Masters Men (39)
143 (#325) TEAM EDGAR 34:36:17 3672 Mixed (26)
144 (#324) SUNKONGS 34:38:47 3714 Mixed (27)
145 (#624) START SLOW 34:43:50 3648 Grand Masters Men (27)
146 (#307) BLACKYARD RACING NI 35:08:39 3594 Mixed (28)
147 (#617) OH REALLY 35:16:24 3614 Grand Masters Men (28)
148 (#635) TRYING AGAIN 35:35:07 3762 Grand Masters Men (29)
149 (#423) LUP & HONG 35:36:04 3724 Masters Men (40)
150 (#627) TEAM MAMMOTH 35:54:32 3379 Grand Masters Men (30)
151 (#455) WINE DINE FINISH LINE 36:03:43 3826 Masters Men (41)
152 (#332) WESTRA-CHOO 37:30:25 3954 Mixed (29)
153 (#308) COLORADO CRUISERS 38:56:21 3965 Mixed (30)
- (#414) DUSTYDAZE WHANGAREI Masters Men
- (#115) LA PLATA PEDALERS Open Men
- (#613) GIORGI EXCLUSIVE HOMES Grand Masters Men
- (#614) GIVE IT HORNS Grand Masters Men
- (#311) FASTLANE 2 Mixed
- (#312) FENTON Mixed
- (#415) FIZO CYCLING Masters Men
- (#421) ITS CHEAPER THAN THERAPY Masters Men
- (#615) JAM Grand Masters Men
- (#418) I CLIMB WELL FOR MY WEIGHT Masters Men
- (#504) GREG PARRÆS GIRL TORQUE Masters Women
- (#327) TEAM PHENOMENAL HOPE Mixed
- (#442) TEAM KT-26 Masters Men
- (#634) THE WHIPPETS Grand Masters Men
- (#631) THE BARNES GROUP RACING SNAKES Grand Masters Men
- (#632) THE BEAVERTOWN BOYS Grand Masters Men
- (#142) THAT'S THE RHYTHM Open Men
- (#144) THE HIPPY & THE GYPPY Open Men
- (#427) OAMARU HONDA Masters Men
- (#506) NORTH TO SOUTH Masters Women
- (#439) SYED & JUAN MTB TEAM Masters Men
- (#432) RIVET RACING Masters Men
- (#453) WALTER AND STATLER Masters Men